createdAt,value
2022-07-27T00:01:06.072Z,99496.47
2022-07-27T00:04:11.763Z,99497.02
2022-07-27T00:07:17.353Z,99500.02
2022-07-27T00:10:23.618Z,99491.12
2022-07-27T00:13:30.083Z,99492.20
2022-07-27T00:16:37.030Z,99486.38
2022-07-27T00:19:43.434Z,99491.28
2022-07-27T00:22:49.785Z,99487.09
2022-07-27T00:25:55.587Z,99490.69
2022-07-27T00:29:01.495Z,99484.95
2022-07-27T00:32:12.340Z,99483.22
2022-07-27T00:35:14.748Z,99489.50
2022-07-27T00:38:20.444Z,99480.63
2022-07-27T00:41:25.818Z,99484.92
2022-07-27T00:44:43.351Z,99486.01
2022-07-27T00:47:54.568Z,99492.52
2022-07-27T00:50:57.905Z,99482.78
2022-07-27T00:54:03.748Z,99482.73
2022-07-27T00:57:08.831Z,99486.03
2022-07-27T01:00:14.137Z,99489.63
2022-07-27T01:03:20.654Z,99493.77
2022-07-27T01:06:28.374Z,99490.77
2022-07-27T01:09:53.131Z,99488.11
2022-07-27T01:13:00.289Z,99488.65
2022-07-27T01:15:59.960Z,99488.65
2022-07-27T01:19:05.459Z,99498.16
2022-07-27T01:22:12.565Z,99492.13
2022-07-27T01:25:19.333Z,99479.62
2022-07-27T01:28:25.048Z,99484.59
2022-07-27T01:31:30.570Z,99485.58
2022-07-27T01:34:40.031Z,99488.28
2022-07-27T01:37:48.106Z,99492.17
2022-07-27T01:40:55.147Z,99491.88
2022-07-27T01:44:02.071Z,99495.72
2022-07-27T01:47:14.604Z,99495.09
2022-07-27T01:50:14.891Z,99488.73
2022-07-27T01:53:21.651Z,99487.66
2022-07-27T01:56:28.325Z,99486.76
2022-07-27T01:59:35.987Z,99490.27
2022-07-27T02:02:41.950Z,99491.89
2022-07-27T02:05:49.121Z,99501.24
2022-07-27T02:08:53.833Z,99497.55
2022-07-27T02:12:10.541Z,99505.23
2022-07-27T02:15:26.465Z,99502.69
2022-07-27T02:18:36.890Z,99511.20
2022-07-27T02:21:41.374Z,99516.11
2022-07-27T02:24:47.842Z,99516.66
2022-07-27T02:27:55.031Z,99520.85
2022-07-27T02:31:01.009Z,99524.53
2022-07-27T02:34:06.727Z,99534.88
2022-07-27T02:37:06.871Z,99528.87
2022-07-27T02:40:12.515Z,99527.92
2022-07-27T02:43:10.649Z,99523.66
2022-07-27T02:46:16.092Z,99525.48
2022-07-27T02:49:21.104Z,99536.15
2022-07-27T02:52:27.259Z,99534.89
2022-07-27T02:55:32.761Z,99536.41
2022-07-27T02:58:38.605Z,99530.75
2022-07-27T03:01:44.512Z,99533.90
2022-07-27T03:04:37.246Z,99531.89
2022-07-27T03:07:43.195Z,99545.76
2022-07-27T03:10:49.815Z,99544.95
2022-07-27T03:13:56.146Z,99546.13
2022-07-27T03:17:02.178Z,99552.53
2022-07-27T03:20:10.657Z,99550.02
2022-07-27T03:23:15.922Z,99551.87
2022-07-27T03:26:21.266Z,99552.92
2022-07-27T03:29:29.332Z,99545.42
2022-07-27T03:32:33.814Z,99548.78
2022-07-27T03:35:39.033Z,99548.83
2022-07-27T03:38:44.241Z,99553.30
2022-07-27T03:41:42.680Z,99552.37
2022-07-27T03:44:48.192Z,99555.25
2022-07-27T03:47:54.417Z,99568.40
2022-07-27T03:51:00.072Z,99565.91
2022-07-27T03:54:07.118Z,99567.61
2022-07-27T03:57:13.229Z,99574.61
2022-07-27T04:00:20.972Z,99576.98
2022-07-27T04:03:19.890Z,99575.95
2022-07-27T04:06:26.161Z,99575.19
2022-07-27T04:09:31.936Z,99577.94
2022-07-27T04:12:39.188Z,99581.28
2022-07-27T04:15:45.578Z,99587.08
2022-07-27T04:18:50.958Z,99586.25
2022-07-27T04:21:56.753Z,99584.09
2022-07-27T04:25:02.641Z,99581.94
2022-07-27T04:28:07.806Z,99589.55
2022-07-27T04:31:14.512Z,99586.84
2022-07-27T04:34:21.476Z,99584.36
2022-07-27T04:37:29.163Z,99587.01
2022-07-27T04:40:34.815Z,99584.88
2022-07-27T04:43:40.750Z,99587.72
2022-07-27T04:46:45.361Z,99594.74
2022-07-27T04:49:51.060Z,99594.52
2022-07-27T04:52:56.523Z,99598.42
2022-07-27T04:56:02.214Z,99596.48
2022-07-27T04:59:10.073Z,99595.11
2022-07-27T05:02:16.413Z,99598.21
2022-07-27T05:05:22.773Z,99595.46
2022-07-27T05:08:28.963Z,99590.44
2022-07-27T05:11:34.019Z,99591.05
2022-07-27T05:14:41.134Z,99588.53
2022-07-27T05:17:48.607Z,99595.25
2022-07-27T05:20:54.015Z,99596.91
2022-07-27T05:24:00.499Z,99595.79
2022-07-27T05:27:05.731Z,99598.00
2022-07-27T05:30:13.183Z,99602.70
2022-07-27T05:33:19.813Z,99599.61
2022-07-27T05:36:26.463Z,99597.55
2022-07-27T05:39:33.120Z,99601.66
2022-07-27T05:42:39.561Z,99595.77
2022-07-27T05:45:44.962Z,99599.07
2022-07-27T05:48:51.584Z,99606.00
2022-07-27T05:51:56.524Z,99603.99
2022-07-27T05:54:55.960Z,99606.83
2022-07-27T05:57:55.581Z,99608.27
2022-07-27T06:01:01.381Z,99614.19
2022-07-27T06:04:07.984Z,99610.83
2022-07-27T06:07:32.024Z,99609.12
2022-07-27T06:10:38.603Z,99608.79
2022-07-27T06:13:43.638Z,99610.16
2022-07-27T06:16:50.748Z,99614.28
2022-07-27T06:19:56.549Z,99604.70
2022-07-27T06:23:09.571Z,99612.19
2022-07-27T06:26:09.496Z,99606.24
2022-07-27T06:29:16.185Z,99610.92
2022-07-27T06:32:21.537Z,99607.53
2022-07-27T06:35:30.402Z,99614.23
2022-07-27T06:38:36.748Z,99619.56
2022-07-27T06:41:42.174Z,99612.83
2022-07-27T06:44:47.081Z,99606.98
2022-07-27T06:47:52.659Z,99613.98
2022-07-27T06:50:58.886Z,99609.08
2022-07-27T06:54:04.546Z,99608.48
2022-07-27T06:57:10.379Z,99613.70
2022-07-27T07:00:16.138Z,99613.41
2022-07-27T07:03:23.220Z,99622.52
2022-07-27T07:06:29.697Z,99621.52
2022-07-27T07:09:36.463Z,99628.73
2022-07-27T07:12:43.236Z,99628.66
2022-07-27T07:15:49.447Z,99629.33
2022-07-27T07:18:56.154Z,99623.61
2022-07-27T07:22:01.648Z,99629.27
2022-07-27T07:25:06.967Z,99631.28
2022-07-27T07:28:12.996Z,99636.11
2022-07-27T07:31:17.925Z,99628.58
2022-07-27T07:34:23.977Z,99633.71
2022-07-27T07:37:33.679Z,99633.14
2022-07-27T07:40:45.308Z,99634.27
2022-07-27T07:43:46.234Z,99632.63
2022-07-27T07:46:51.382Z,99635.89
2022-07-27T07:49:57.271Z,99639.91
2022-07-27T07:53:05.113Z,99637.77
2022-07-27T07:56:11.240Z,99639.72
2022-07-27T07:59:16.619Z,99638.38
2022-07-27T08:02:23.232Z,99637.91
2022-07-27T08:05:28.978Z,99635.34
2022-07-27T08:08:37.064Z,99633.84
2022-07-27T08:11:42.404Z,99632.25
2022-07-27T08:14:48.346Z,99637.31
2022-07-27T08:17:55.114Z,99640.86
2022-07-27T08:21:01.860Z,99641.39
2022-07-27T08:24:07.351Z,99636.08
2022-07-27T08:27:15.283Z,99644.11
2022-07-27T08:30:22.065Z,99650.16
2022-07-27T08:33:27.680Z,99648.55
2022-07-27T08:36:34.749Z,99649.30
2022-07-27T08:40:37.237Z,99645.77
2022-07-27T08:42:49.233Z,99649.23
2022-07-27T08:45:55.755Z,99648.23
2022-07-27T08:49:01.323Z,99645.92
2022-07-27T08:52:09.478Z,99647.25
2022-07-27T08:55:15.222Z,99654.61
2022-07-27T08:58:22.545Z,99648.22
2022-07-27T09:01:28.724Z,99642.05
2022-07-27T09:04:33.896Z,99640.57
2022-07-27T09:07:42.927Z,99640.13
2022-07-27T09:10:50.117Z,99646.50
2022-07-27T09:13:49.240Z,99642.28
2022-07-27T09:17:44.129Z,99649.07
2022-07-27T09:20:15.697Z,99649.47
2022-07-27T09:23:17.697Z,99647.41
2022-07-27T09:26:34.562Z,99647.28
2022-07-27T09:29:33.665Z,99648.26
2022-07-27T09:32:39.370Z,99639.41
2022-07-27T09:35:48.008Z,99643.30
2022-07-27T09:39:01.730Z,99649.06
2022-07-27T09:42:04.912Z,99643.53
2022-07-27T09:45:12.398Z,99644.60
2022-07-27T09:48:36.022Z,99637.97
2022-07-27T09:51:59.618Z,99632.92
2022-07-27T09:54:58.914Z,99632.61
2022-07-27T09:58:15.398Z,99630.95
2022-07-27T10:01:15.309Z,99632.67
2022-07-27T10:04:21.846Z,99637.30
2022-07-27T10:07:29.439Z,99634.16
2022-07-27T10:10:35.920Z,99636.43
2022-07-27T10:13:43.743Z,99641.55
2022-07-27T10:16:50.218Z,99634.89
2022-07-27T10:20:02.436Z,99633.38
2022-07-27T10:23:14.207Z,99632.91
2022-07-27T10:26:42.016Z,99636.81
2022-07-27T10:29:46.956Z,99633.57
2022-07-27T10:32:53.810Z,99635.98
2022-07-27T10:35:59.532Z,99635.82
2022-07-27T10:39:07.333Z,99633.70
2022-07-27T10:42:36.716Z,99631.20
2022-07-27T10:46:01.388Z,99637.48
2022-07-27T10:48:53.236Z,99627.28
2022-07-27T10:51:59.856Z,99633.13
2022-07-27T10:55:06.817Z,99630.27
2022-07-27T10:58:35.553Z,99632.19
2022-07-27T11:01:42.459Z,99631.97
2022-07-27T11:04:48.011Z,99628.66
2022-07-27T11:08:34.937Z,99626.92
2022-07-27T11:11:03.395Z,99631.10
2022-07-27T11:14:11.843Z,99627.03
2022-07-27T11:20:31.276Z,99630.09
2022-07-27T11:23:50.873Z,99633.23
2022-07-27T11:26:48.253Z,99628.64
2022-07-27T11:29:53.950Z,99628.64
2022-07-27T11:33:00.424Z,99630.21
2022-07-27T11:36:11.236Z,99627.52
2022-07-27T11:39:28.554Z,99627.24
2022-07-27T11:42:24.183Z,99620.83
2022-07-27T11:45:45.805Z,99623.52
2022-07-27T11:49:09.506Z,99621.08
2022-07-27T11:52:02.451Z,99621.08
2022-07-27T11:55:07.742Z,99629.18
2022-07-27T11:58:21.437Z,99629.39
2022-07-27T12:01:29.262Z,99625.91
2022-07-27T12:04:49.260Z,99625.91
2022-07-27T12:07:54.744Z,99624.20
2022-07-27T12:11:14.257Z,99626.93
2022-07-27T12:14:26.909Z,99626.93
2022-07-27T12:17:42.157Z,99618.12
2022-07-27T12:20:48.643Z,99618.78
2022-07-27T12:24:05.989Z,99618.78
2022-07-27T12:27:24.178Z,99622.80
2022-07-27T12:30:28.951Z,99620.56
2022-07-27T12:33:53.610Z,99617.04
2022-07-27T12:36:58.174Z,99618.36
2022-07-27T12:40:03.873Z,99619.39
2022-07-27T12:43:18.519Z,99618.81
2022-07-27T12:46:28.054Z,99618.81
2022-07-27T12:49:33.161Z,99611.55
2022-07-27T12:52:38.281Z,99602.87
2022-07-27T12:55:43.474Z,99599.02
2022-07-27T12:58:49.047Z,99599.02
2022-07-27T13:01:58.527Z,99589.05
2022-07-27T13:05:03.893Z,99596.74
2022-07-27T13:08:11.881Z,99597.90
2022-07-27T13:11:21.291Z,99597.90
2022-07-27T13:14:21.201Z,99588.45
2022-07-27T13:17:27.429Z,99588.95
2022-07-27T13:20:33.481Z,99594.53
2022-07-27T13:23:39.631Z,99576.08
2022-07-27T13:26:45.038Z,99582.79
2022-07-27T13:29:50.715Z,99579.97
2022-07-27T13:32:55.975Z,99579.97
2022-07-27T13:36:02.617Z,99582.45
2022-07-27T13:39:08.249Z,99577.03
2022-07-27T13:42:15.523Z,99584.22
2022-07-27T13:45:21.933Z,99589.86
2022-07-27T13:48:28.554Z,99580.09
2022-07-27T13:51:33.654Z,99576.78
2022-07-27T13:54:39.463Z,99578.36
2022-07-27T13:57:45.000Z,99582.63
2022-07-27T14:00:51.840Z,99582.63
2022-07-27T14:03:57.694Z,99588.38
2022-07-27T14:07:03.156Z,99587.91
2022-07-27T14:10:26.751Z,99580.05
2022-07-27T14:13:36.718Z,99589.78
2022-07-27T14:16:44.503Z,99588.83
2022-07-27T14:19:53.229Z,99592.88
2022-07-27T14:22:59.380Z,99592.42
2022-07-27T14:26:05.129Z,99588.82
2022-07-27T14:29:10.901Z,99588.95
2022-07-27T14:32:17.565Z,99592.76
2022-07-27T14:35:24.022Z,99583.36
2022-07-27T14:38:31.200Z,99589.04
2022-07-27T14:41:43.949Z,99595.13
2022-07-27T14:44:44.297Z,99594.17
2022-07-27T14:47:50.240Z,99593.67
2022-07-27T14:50:56.922Z,99586.43
2022-07-27T14:54:03.089Z,99588.00
2022-07-27T14:57:08.699Z,99598.77
2022-07-27T15:00:16.474Z,99594.70
2022-07-27T15:03:21.847Z,99593.73
2022-07-27T15:06:27.327Z,99593.54
2022-07-27T15:09:33.122Z,99586.11
2022-07-27T15:12:39.301Z,99590.66
2022-07-27T15:15:46.550Z,99598.64
2022-07-27T15:18:53.105Z,99598.78
2022-07-27T15:21:59.233Z,99600.62
2022-07-27T15:25:05.630Z,99601.34
2022-07-27T15:28:05.059Z,99607.33
2022-07-27T15:31:11.095Z,99604.66
2022-07-27T15:34:16.048Z,99611.55
2022-07-27T15:37:21.446Z,99610.53
2022-07-27T15:40:46.192Z,99612.33
2022-07-27T15:43:52.006Z,99619.70
2022-07-27T15:46:57.810Z,99616.99
2022-07-27T15:50:03.979Z,99620.73
2022-07-27T15:53:10.320Z,99624.78
2022-07-27T15:56:16.902Z,99628.30
2022-07-27T15:59:23.096Z,99626.50
2022-07-27T16:02:32.912Z,99622.14
2022-07-27T16:05:40.390Z,99636.05
2022-07-27T16:08:46.148Z,99637.80
2022-07-27T16:11:52.631Z,99633.58
2022-07-27T16:15:00.842Z,99637.05
2022-07-27T16:18:06.178Z,99639.37
2022-07-27T16:21:11.935Z,99639.16
2022-07-27T16:24:17.311Z,99641.22
2022-07-27T16:27:23.769Z,99633.19
2022-07-27T16:30:33.968Z,99641.12
2022-07-27T16:33:38.530Z,99640.64
2022-07-27T16:36:44.293Z,99642.13
2022-07-27T16:39:51.667Z,99640.80
2022-07-27T16:42:59.527Z,99645.06
2022-07-27T16:46:07.113Z,99650.23
2022-07-27T16:49:13.149Z,99646.99
2022-07-27T16:52:20.459Z,99654.92
2022-07-27T16:55:27.569Z,99655.31
2022-07-27T16:58:33.640Z,99660.53
2022-07-27T17:01:39.405Z,99653.08
2022-07-27T17:04:45.458Z,99658.77
2022-07-27T17:07:50.770Z,99658.89
2022-07-27T17:10:56.293Z,99664.61
2022-07-27T17:14:05.027Z,99663.04
2022-07-27T17:17:12.656Z,99663.67
2022-07-27T17:20:28.052Z,99664.90
2022-07-27T17:23:22.758Z,99672.22
2022-07-27T17:26:28.991Z,99678.20
2022-07-27T17:29:35.455Z,99678.78
2022-07-27T17:32:41.371Z,99676.39
2022-07-27T17:35:47.911Z,99683.72
2022-07-27T17:38:54.211Z,99683.78
2022-07-27T17:41:53.217Z,99686.86
2022-07-27T17:45:00.295Z,99691.11
2022-07-27T17:48:06.654Z,99686.13
2022-07-27T17:51:12.751Z,99690.91
2022-07-27T17:54:18.259Z,99697.64
2022-07-27T17:57:24.227Z,99699.09
2022-07-27T18:00:31.166Z,99705.25
2022-07-27T18:03:36.749Z,99705.23
2022-07-27T18:06:42.802Z,99711.98
2022-07-27T18:09:47.804Z,99714.77
2022-07-27T18:12:54.636Z,99717.55
2022-07-27T18:16:01.461Z,99720.91
2022-07-27T18:19:09.866Z,99728.98
2022-07-27T18:22:15.589Z,99727.55
2022-07-27T18:25:22.350Z,99727.80
2022-07-27T18:28:27.659Z,99730.57
2022-07-27T18:31:34.172Z,99729.41
2022-07-27T18:34:39.577Z,99731.05
2022-07-27T18:37:44.770Z,99730.45
2022-07-27T18:40:52.733Z,99735.13
2022-07-27T18:44:01.123Z,99736.98
2022-07-27T18:47:07.025Z,99740.52
2022-07-27T18:50:11.897Z,99739.63
2022-07-27T18:53:17.722Z,99745.41
2022-07-27T18:56:23.230Z,99741.73
2022-07-27T18:59:29.241Z,99750.89
2022-07-27T19:02:39.076Z,99756.14
2022-07-27T19:05:41.998Z,99759.69
2022-07-27T19:08:48.216Z,99763.27
2022-07-27T19:11:54.443Z,99767.06
2022-07-27T19:15:00.635Z,99772.54
2022-07-27T19:18:05.898Z,99776.40
2022-07-27T19:21:12.082Z,99783.81
2022-07-27T19:24:18.533Z,99778.44
2022-07-27T19:27:23.986Z,99783.34
2022-07-27T19:30:30.059Z,99775.22
2022-07-27T19:33:37.242Z,99781.84
2022-07-27T19:36:42.678Z,99781.50
2022-07-27T19:39:57.502Z,99784.73
2022-07-27T19:42:55.593Z,99784.60
2022-07-27T19:46:00.965Z,99797.94
2022-07-27T19:49:06.905Z,99793.33
2022-07-27T19:52:13.223Z,99791.30
2022-07-27T19:55:18.006Z,99796.81
2022-07-27T19:58:25.032Z,99794.59
2022-07-27T20:01:30.248Z,99793.20
2022-07-27T20:07:41.504Z,99792.41
2022-07-27T20:10:47.629Z,99792.98
2022-07-27T20:13:55.323Z,99793.31
2022-07-27T20:17:01.457Z,99802.49
2022-07-27T20:20:07.743Z,99801.10
2022-07-27T20:23:14.319Z,99797.20
2022-07-27T20:26:21.428Z,99799.65
2022-07-27T20:29:28.007Z,99802.64
2022-07-27T20:32:35.560Z,99802.64
2022-07-27T20:35:42.971Z,99805.70
2022-07-27T20:38:48.717Z,99812.64
2022-07-27T20:41:54.100Z,99810.42
2022-07-27T20:45:00.189Z,99810.09
2022-07-27T20:48:06.506Z,99812.86
2022-07-27T20:51:12.056Z,99808.64
2022-07-27T20:54:18.003Z,99806.39
2022-07-27T20:57:25.750Z,99810.23
2022-07-27T21:00:32.655Z,99808.84
2022-07-27T21:03:38.947Z,99811.02
2022-07-27T21:06:44.062Z,99806.55
2022-07-27T21:09:51.020Z,99815.59
2022-07-27T21:12:55.967Z,99813.24
2022-07-27T21:16:02.203Z,99818.23
2022-07-27T21:19:08.305Z,99809.89
2022-07-27T21:22:15.430Z,99814.89
2022-07-27T21:25:22.908Z,99812.45
2022-07-27T21:28:29.685Z,99816.08
2022-07-27T21:31:37.165Z,99818.02
2022-07-27T21:34:43.235Z,99817.73
2022-07-27T21:37:51.081Z,99822.39
2022-07-27T21:40:56.995Z,99821.01
2022-07-27T21:44:02.562Z,99824.34
2022-07-27T21:47:13.492Z,99823.70
2022-07-27T21:50:15.205Z,99820.64
2022-07-27T21:53:21.149Z,99821.95
2022-07-27T21:56:27.536Z,99820.77
2022-07-27T21:59:32.368Z,99825.44
2022-07-27T22:02:38.214Z,99825.70
2022-07-27T22:05:43.640Z,99824.98
2022-07-27T22:08:50.614Z,99824.27
2022-07-27T22:11:56.780Z,99828.55
2022-07-27T22:15:02.020Z,99825.69
2022-07-27T22:18:07.416Z,99831.16
2022-07-27T22:21:16.126Z,99835.23
2022-07-27T22:24:22.790Z,99834.65
2022-07-27T22:27:30.147Z,99839.66
2022-07-27T22:30:36.581Z,99845.49
2022-07-27T22:33:44.413Z,99845.52
2022-07-27T22:36:48.921Z,99846.97
2022-07-27T22:39:55.181Z,99859.38
2022-07-27T22:43:02.246Z,99856.86
2022-07-27T22:46:07.734Z,99857.80
2022-07-27T22:49:14.367Z,99854.87
2022-07-27T22:52:20.470Z,99853.09
2022-07-27T22:55:26.097Z,99854.06
2022-07-27T22:58:32.690Z,99856.74
2022-07-27T23:01:46.590Z,99860.03
2022-07-27T23:04:46.014Z,99861.77
2022-07-27T23:07:50.798Z,99859.98
2022-07-27T23:10:57.557Z,99866.31
2022-07-27T23:14:05.292Z,99865.72
2022-07-27T23:17:10.753Z,99867.88
2022-07-27T23:20:19.544Z,99872.88
2022-07-27T23:23:27.642Z,99867.33
2022-07-27T23:26:33.179Z,99874.05
2022-07-27T23:29:39.600Z,99873.79
2022-07-27T23:32:46.497Z,99882.73
2022-07-27T23:35:51.413Z,99878.79
2022-07-27T23:38:57.218Z,99877.50
2022-07-27T23:42:02.401Z,99876.25
2022-07-27T23:45:08.661Z,99872.16
2022-07-27T23:48:13.334Z,99870.87
2022-07-27T23:51:19.272Z,99869.48
2022-07-27T23:54:25.469Z,99874.20
2022-07-27T23:57:30.503Z,99877.52
